Time;durP1;ratioP1;P1;durP2;ratioP2;P2;SDS_P1;SDS_P2;PMS_P1;PMS_P2;Temp;Humidity;BMP_temperature;BMP_pressure;BME280_temperature;BME280_humidity;BME280_pressure;Samples;Min_cycle;Max_cycle;Signal;HPM_P1;HPM_P2
2022/10/07 00:01:15;;;;;;;9.23;2.80;;;;;;;-148.88;87.75;77166.81;4974426;28;20056;-86
2022/10/07 00:03:43;;;;;;;12.00;2.72;;;;;;;-148.88;87.76;77164.78;4974079;28;20097;-85
2022/10/07 00:06:21;;;;;;;7.00;2.65;;;;;;;-148.88;87.38;77166.81;4974104;28;20027;-85
2022/10/07 00:08:54;;;;;;;9.75;3.00;;;;;;;-148.88;87.35;77154.63;4972369;28;20026;-86
2022/10/07 00:11:22;;;;;;;6.70;2.60;;;;;;;-148.88;87.28;77158.69;4974101;28;20027;-86
2022/10/07 00:13:53;;;;;;;9.85;3.30;;;;;;;-148.88;87.59;77162.75;4973642;28;20187;-86
2022/10/07 00:16:26;;;;;;;9.18;2.90;;;;;;;-148.88;87.35;77160.72;4973355;28;20034;-85
2022/10/07 00:18:56;;;;;;;8.13;2.60;;;;;;;-148.88;87.48;77156.66;4994500;23;20046;-85
2022/10/07 00:21:22;;;;;;;9.85;2.60;;;;;;;-148.88;87.25;77162.75;4959313;29;20033;-85
2022/10/07 00:23:48;;;;;;;7.95;2.85;;;;;;;-148.88;87.62;77166.81;4959014;29;20482;-84
2022/10/07 00:26:17;;;;;;;9.25;3.20;;;;;;;-148.88;87.63;77162.75;4959164;29;20034;-85
2022/10/07 00:28:43;;;;;;;11.27;3.38;;;;;;;-148.88;87.67;77170.88;4955778;28;20043;-84
2022/10/07 00:31:13;;;;;;;9.75;2.35;;;;;;;-148.88;88.08;77170.88;4940422;29;20467;-84
2022/10/07 00:33:39;;;;;;;11.82;2.67;;;;;;;-148.88;88.17;77170.88;4939635;29;20135;-84
2022/10/07 00:36:11;;;;;;;9.20;2.95;;;;;;;-148.88;88.17;77170.88;4939548;29;20028;-83
2022/10/07 00:38:37;;;;;;;11.93;3.40;;;;;;;-148.88;87.84;77166.81;4939934;29;20120;-85
2022/10/07 00:41:06;;;;;;;10.05;2.97;;;;;;;-148.88;87.89;77164.78;4940791;29;20020;-84
2022/10/07 00:43:34;;;;;;;6.78;2.45;;;;;;;-148.88;88.07;77158.69;4944771;29;20019;-85
2022/10/07 00:46:15;;;;;;;11.45;2.92;;;;;;;-148.88;87.94;77164.78;4942095;29;20099;-83
2022/10/07 00:48:43;;;;;;;10.07;2.80;;;;;;;-148.88;88.16;77158.69;4941417;29;20446;-84
2022/10/07 00:51:09;;;;;;;7.53;2.67;;;;;;;-148.88;87.79;77158.69;4941576;29;20024;-83
2022/10/07 00:53:38;;;;;;;10.30;3.10;;;;;;;-148.88;88.01;77158.69;4942395;29;20087;-84
2022/10/07 00:56:05;;;;;;;8.75;2.65;;;;;;;-148.88;87.65;77158.69;4943424;29;20049;-84
2022/10/07 00:58:35;;;;;;;9.48;2.75;;;;;;;-148.88;87.94;77148.53;4944473;28;20027;-85
2022/10/07 01:01:01;;;;;;;8.63;2.75;;;;;;;-148.88;87.13;77154.63;4947046;29;20402;-85
2022/10/07 01:03:27;;;;;;;8.88;2.40;;;;;;;-148.88;87.80;77164.78;4945708;29;20505;-85
2022/10/07 01:05:53;;;;;;;9.40;2.63;;;;;;;-148.88;87.98;77166.81;4947036;29;20427;-85
2022/10/07 01:08:21;;;;;;;8.27;3.20;;;;;;;-148.88;88.65;77168.84;4944689;29;20019;-85
2022/10/07 01:10:55;;;;;;;11.77;3.00;;;;;;;-148.88;88.50;77166.81;4946504;29;20027;-84
2022/10/07 01:13:33;;;;;;;9.55;2.83;;;;;;;-148.88;88.79;77172.91;4944800;29;20091;-84
2022/10/07 01:16:21;;;;;;;9.52;2.47;;;;;;;-148.88;88.67;77168.84;4944792;29;20115;-85
2022/10/07 01:19:03;;;;;;;8.93;2.45;;;;;;;-148.88;88.80;77170.88;4944506;29;20055;-84
2022/10/07 01:21:45;;;;;;;8.52;2.22;;;;;;;-148.88;88.65;77170.88;4939596;29;20032;-84
2022/10/07 01:24:23;;;;;;;7.75;2.45;;;;;;;-148.88;88.97;77174.94;4941237;29;20032;-84
2022/10/07 01:27:10;;;;;;;12.35;2.50;;;;;;;-148.88;89.03;77162.75;4940987;29;20496;-84
2022/10/07 01:29:43;;;;;;;8.45;2.88;;;;;;;-148.88;89.04;77164.78;4942463;29;20030;-85
2022/10/07 01:32:23;;;;;;;9.68;2.28;;;;;;;-148.88;88.99;77166.81;4944305;29;20071;-84
2022/10/07 01:34:55;;;;;;;10.20;2.28;;;;;;;-148.88;88.98;77168.84;4954720;29;20032;-85
2022/10/07 01:37:24;;;;;;;8.47;2.17;;;;;;;-148.88;89.39;77164.78;4956639;29;20028;-85
2022/10/07 01:39:55;;;;;;;8.63;2.65;;;;;;;-148.88;89.21;77166.81;4946500;29;20028;-85
2022/10/07 01:42:21;;;;;;;10.57;2.38;;;;;;;-148.88;89.56;77174.94;4945718;29;20114;-85
2022/10/07 01:44:51;;;;;;;7.20;2.67;;;;;;;-148.88;89.73;77168.84;4944369;29;20027;-85
2022/10/07 01:47:17;;;;;;;9.23;2.53;;;;;;;-148.88;89.34;77164.78;4944010;29;20020;-86
2022/10/07 01:49:42;;;;;;;7.55;2.38;;;;;;;-148.88;89.43;77162.75;4945156;29;20086;-84
2022/10/07 01:52:17;;;;;;;6.45;2.20;;;;;;;-148.88;89.48;77162.75;4958929;28;20024;-84
2022/10/07 01:55:26;;;;;;;6.63;2.33;;;;;;;-148.88;89.75;77162.75;4944032;29;20102;-84
2022/10/07 01:57:58;;;;;;;9.75;2.67;;;;;;;-148.88;89.67;77162.75;4938844;29;20542;-83
2022/10/07 02:00:24;;;;;;;6.05;2.20;;;;;;;-148.88;89.93;77166.81;4941450;29;20071;-84
2022/10/07 02:03:05;;;;;;;8.82;2.47;;;;;;;-148.88;90.26;77162.75;4942048;29;20052;-85
2022/10/07 02:05:52;;;;;;;9.82;2.00;;;;;;;-148.88;89.89;77166.81;4941891;29;20098;-85
2022/10/07 02:08:44;;;;;;;9.15;2.25;;;;;;;-148.88;90.02;77170.88;4943226;29;20417;-84
2022/10/07 02:11:14;;;;;;;10.40;2.28;;;;;;;-148.88;90.20;77174.94;4943969;29;20024;-84
2022/10/07 02:14:02;;;;;;;16.02;3.50;;;;;;;-148.88;90.51;77174.94;4943380;29;20026;-84
2022/10/07 02:16:34;;;;;;;5.25;2.03;;;;;;;-148.88;90.28;77174.94;4943143;29;20034;-84
2022/10/07 02:19:04;;;;;;;4.10;1.77;;;;;;;-148.88;90.61;77179.00;4944271;29;20066;-85
2022/10/07 02:21:34;;;;;;;6.38;2.03;;;;;;;-148.88;90.61;77174.94;4944612;29;20023;-84
2022/10/07 02:24:01;;;;;;;10.00;2.78;;;;;;;-148.88;90.76;77176.97;4944258;29;20024;-84
2022/10/07 02:26:29;;;;;;;8.63;1.95;;;;;;;-148.88;91.00;77174.94;4944294;29;20024;-85
2022/10/07 02:28:57;;;;;;;6.30;2.25;;;;;;;-148.88;91.10;77172.91;4942577;29;20035;-85
2022/10/07 02:31:30;;;;;;;9.77;2.20;;;;;;;-148.88;90.68;77174.94;4939338;29;20020;-84
2022/10/07 02:33:57;;;;;;;6.95;1.83;;;;;;;-148.88;90.93;77168.84;4939853;29;20095;-84
2022/10/07 02:36:51;;;;;;;6.80;1.70;;;;;;;-148.88;90.85;77170.88;4940307;29;20055;-84
2022/10/07 02:39:16;;;;;;;4.93;1.60;;;;;;;-148.88;90.80;77164.78;4939756;29;20094;-84
2022/10/07 02:41:58;;;;;;;6.30;2.28;;;;;;;-148.88;90.97;77164.78;4942712;29;20035;-84
2022/10/07 02:44:42;;;;;;;7.78;1.98;;;;;;;-148.88;90.83;77166.81;4941942;29;20031;-85
2022/10/07 02:47:16;;;;;;;5.45;1.98;;;;;;;-148.88;90.75;77166.81;4943136;29;20106;-84
2022/10/07 02:49:44;;;;;;;;;;;;;;;-148.88;90.98;77164.78;4942926;29;20165;-85
2022/10/07 02:52:18;;;;;;;4.28;1.50;;;;;;;-148.88;90.43;77162.75;4943467;29;19953;-84
2022/10/07 02:54:53;;;;;;;6.82;1.98;;;;;;;-148.88;90.98;77170.88;4944407;29;20032;-84
2022/10/07 02:57:20;;;;;;;7.32;2.00;;;;;;;-148.88;90.88;77166.81;4943979;29;20024;-85
2022/10/07 02:59:47;;;;;;;6.18;1.88;;;;;;;-148.88;91.08;77162.75;4944574;29;20019;-85
2022/10/07 03:02:24;;;;;;;5.72;1.85;;;;;;;-148.88;91.17;77162.75;4945484;29;20119;-85
2022/10/07 03:04:49;;;;;;;6.55;1.88;;;;;;;-148.88;91.26;77164.78;4943128;29;20118;-84
2022/10/07 03:07:15;;;;;;;8.13;1.85;;;;;;;-148.88;91.33;77172.91;4937457;29;20047;-84
2022/10/07 03:09:42;;;;;;;6.45;2.10;;;;;;;-148.88;91.35;77158.69;4938442;29;20019;-84
2022/10/07 03:12:07;;;;;;;12.35;2.22;;;;;;;-148.88;90.92;77166.81;4939431;29;20042;-84
2022/10/07 03:14:34;;;;;;;9.02;2.80;;;;;;;-148.88;90.95;77170.88;4940649;29;20055;-85
2022/10/07 03:17:00;;;;;;;8.23;2.88;;;;;;;-148.88;91.45;77166.81;4940960;29;20032;-84
2022/10/07 03:19:26;;;;;;;8.70;2.25;;;;;;;-148.88;91.73;77174.94;4942867;29;20178;-84
2022/10/07 03:21:52;;;;;;;8.65;2.40;;;;;;;-148.88;91.44;77174.94;4942457;29;20056;-85
2022/10/07 03:24:18;;;;;;;6.80;1.98;;;;;;;-148.88;91.83;77170.88;4942323;28;20035;-85
2022/10/07 03:26:43;;;;;;;8.68;2.28;;;;;;;-148.88;91.80;77170.88;4941830;29;20059;-84
2022/10/07 03:29:09;;;;;;;4.15;1.80;;;;;;;-148.88;91.56;77176.97;4943543;29;20375;-85
2022/10/07 03:31:35;;;;;;;6.45;1.75;;;;;;;-148.88;91.39;77176.97;4942085;29;20079;-85
2022/10/07 03:34:01;;;;;;;8.27;2.05;;;;;;;-148.88;91.65;77179.00;4941764;29;20038;-84
2022/10/07 03:36:27;;;;;;;6.50;1.63;;;;;;;-148.88;91.58;77179.00;4942161;29;20031;-85
2022/10/07 03:38:54;;;;;;;7.40;2.13;;;;;;;-148.88;91.40;77183.06;4942004;29;20023;-82
2022/10/07 03:41:20;;;;;;;6.95;1.88;;;;;;;-148.88;91.63;77185.09;4938690;28;20027;-84
2022/10/07 03:43:45;;;;;;;8.02;1.90;;;;;;;-148.88;91.80;77189.16;4937250;29;20410;-84
2022/10/07 03:46:11;;;;;;;6.95;1.83;;;;;;;-148.88;91.67;77185.09;4938718;29;20107;-84
2022/10/07 03:48:36;;;;;;;7.47;2.03;;;;;;;-148.88;91.31;77199.31;4939237;29;20027;-84
2022/10/07 03:51:01;;;;;;;5.43;1.90;;;;;;;-148.88;92.02;77193.22;4940864;29;20019;-84
2022/10/07 03:53:30;;;;;;;10.60;1.83;;;;;;;-148.88;91.58;77199.31;4940340;29;20035;-84
2022/10/07 03:55:56;;;;;;;5.72;1.95;;;;;;;-148.88;91.51;77207.47;4942478;29;20031;-83
2022/10/07 03:58:21;;;;;;;8.02;2.35;;;;;;;-148.88;92.03;77207.47;4942038;29;20027;-85
2022/10/07 04:00:47;;;;;;;7.85;1.70;;;;;;;-148.88;92.13;77205.44;4940827;29;20571;-85
2022/10/07 04:03:17;;;;;;;6.82;1.52;;;;;;;-148.88;91.79;77211.53;4941481;29;20028;-84
2022/10/07 04:05:44;;;;;;;7.13;1.67;;;;;;;-148.88;92.03;77215.59;4941486;29;20027;-85
2022/10/07 04:08:11;;;;;;;4.68;1.60;;;;;;;-148.88;92.11;77223.72;4942334;29;20118;-84
2022/10/07 04:10:36;;;;;;;4.30;1.52;;;;;;;-148.88;92.12;77221.69;4942245;29;20451;-85
2022/10/07 04:13:02;;;;;;;8.10;2.90;;;;;;;-148.88;91.79;77223.72;4940994;29;20491;-85
2022/10/07 04:15:27;;;;;;;6.20;1.90;;;;;;;-148.88;92.28;77227.78;4941334;29;20031;-85
2022/10/07 04:17:57;;;;;;;7.03;2.10;;;;;;;-148.88;92.82;77229.81;4936392;29;20050;-84
2022/10/07 04:20:23;;;;;;;5.22;1.77;;;;;;;-148.88;92.75;77227.78;4938750;29;20028;-85
2022/10/07 04:22:48;;;;;;;7.88;2.60;;;;;;;-148.88;92.90;77227.78;4939648;29;20049;-84
2022/10/07 04:25:32;;;;;;;7.88;1.70;;;;;;;-148.88;93.26;77231.84;4940907;29;20031;-84
2022/10/07 04:27:59;;;;;;;9.05;1.95;;;;;;;-148.88;93.46;77227.78;4941324;29;20534;-85
2022/10/07 04:30:26;;;;;;;7.60;1.90;;;;;;;-148.88;93.29;77227.78;4940589;29;20055;-84
2022/10/07 04:32:52;;;;;;;8.88;1.92;;;;;;;-148.88;93.90;77227.78;4940119;29;20036;-84
2022/10/07 04:35:21;;;;;;;6.18;2.40;;;;;;;-148.88;93.82;77225.75;4942164;29;20091;-85
2022/10/07 04:37:54;;;;;;;6.70;2.13;;;;;;;-148.88;94.11;77227.78;4940106;29;20023;-84
2022/10/07 04:40:20;;;;;;;6.90;2.85;;;;;;;-148.88;94.07;77223.72;4942397;29;20024;-85
2022/10/07 04:45:32;;;;;;;6.78;1.90;;;;;;;-148.88;94.67;77227.78;4943037;29;20046;-85
2022/10/07 04:47:59;;;;;;;4.85;1.88;;;;;;;-148.88;94.97;77223.72;4940772;29;20055;-85
2022/10/07 04:50:27;;;;;;;8.10;1.95;;;;;;;-148.88;94.96;77225.75;4940690;29;20028;-84
2022/10/07 04:52:56;;;;;;;5.57;2.03;;;;;;;-148.88;94.90;77231.84;4937028;29;20099;-84
2022/10/07 04:55:25;;;;;;;6.00;1.90;;;;;;;-148.88;94.82;77227.78;4965636;28;20027;-84
2022/10/07 04:57:50;;;;;;;5.60;2.17;;;;;;;-148.88;95.49;77231.84;4957119;29;20031;-85
2022/10/07 05:00:16;;;;;;;7.20;1.98;;;;;;;-148.88;95.06;77225.75;4949083;29;20534;-86
2022/10/07 05:02:43;;;;;;;5.30;2.10;;;;;;;-148.88;95.15;77223.72;4945242;29;20383;-86
2022/10/07 05:05:11;;;;;;;9.68;1.95;;;;;;;-148.88;95.20;77219.66;4943897;29;20027;-85
2022/10/07 05:07:36;;;;;;;11.20;2.30;;;;;;;-148.88;95.73;77221.69;4943417;29;20024;-85
2022/10/07 05:10:02;;;;;;;9.07;2.58;;;;;;;-148.88;95.87;77213.56;4943662;29;20206;-84
2022/10/07 05:12:27;;;;;;;6.90;2.38;;;;;;;-148.88;96.08;77215.59;4944496;29;20029;-85
2022/10/07 05:14:53;;;;;;;10.05;2.30;;;;;;;-148.88;96.28;77203.41;4943696;29;20447;-85
2022/10/07 05:17:19;;;;;;;7.05;2.25;;;;;;;-148.88;96.40;77205.44;4942635;29;20028;-85
2022/10/07 05:19:44;;;;;;;7.32;2.22;;;;;;;-148.88;96.37;77199.31;4943884;29;20024;-84
2022/10/07 05:22:10;;;;;;;7.45;2.08;;;;;;;-148.88;96.90;77191.19;4944089;29;20035;-83
2022/10/07 05:24:35;;;;;;;6.72;1.92;;;;;;;-148.88;96.45;77195.25;4938626;29;20032;-85
2022/10/07 05:27:03;;;;;;;5.47;1.88;;;;;;;-148.88;96.18;77199.31;4938826;29;20473;-84
2022/10/07 05:29:28;;;;;;;7.70;2.22;;;;;;;-148.88;96.00;77199.31;4939815;29;20031;-85
2022/10/07 05:31:54;;;;;;;7.90;2.00;;;;;;;-148.88;96.28;77195.25;4939533;29;20372;-83
2022/10/07 05:34:19;;;;;;;5.43;2.10;;;;;;;-148.88;96.39;77199.31;4938834;29;20019;-84
2022/10/07 05:36:44;;;;;;;5.93;2.40;;;;;;;-148.88;96.25;77191.19;4938957;29;20031;-83
2022/10/07 05:39:13;;;;;;;6.07;2.60;;;;;;;-148.88;96.32;77191.19;4939147;29;20031;-84
2022/10/07 05:41:38;;;;;;;8.30;2.63;;;;;;;-148.88;96.40;77189.16;4939936;29;20023;-84
2022/10/07 05:44:04;;;;;;;7.72;2.63;;;;;;;-148.88;96.99;77183.06;4938836;29;20036;-84
2022/10/07 05:46:30;;;;;;;11.82;3.35;;;;;;;-148.88;96.83;77174.94;4939278;29;20032;-84
2022/10/07 05:48:58;;;;;;;12.73;3.13;;;;;;;-148.88;97.17;77176.97;4938946;29;20024;-82
2022/10/07 05:51:24;;;;;;;9.65;2.58;;;;;;;-148.88;97.90;77148.53;4939100;29;20071;-83
2022/10/07 05:53:53;;;;;;;6.70;2.70;;;;;;;-148.88;97.83;77122.13;4940252;29;20570;-83
2022/10/07 05:56:20;;;;;;;9.52;2.38;;;;;;;-148.88;97.62;77111.97;4938878;29;20074;-84
2022/10/07 05:58:46;;;;;;;11.95;2.22;;;;;;;-148.88;97.66;77085.53;4939466;29;20446;-83
2022/10/07 06:01:17;;;;;;;8.15;2.15;;;;;;;-148.88;97.36;77069.28;4939380;29;20463;-84
2022/10/07 06:03:53;;;;;;;8.10;2.17;;;;;;;-148.88;97.25;77053.03;4939347;29;20395;-83
2022/10/07 06:06:39;;;;;;;12.18;2.90;;;;;;;-148.88;96.72;77024.59;4940403;29;20055;-84
2022/10/07 06:14:33;;;;;;;;;;;;;;;-148.88;94.26;76977.84;4942261;29;20050;-84
2022/10/07 06:16:59;;;;;;;8.77;2.30;;;;;;;-148.88;94.04;76969.72;4939252;29;19919;-84
2022/10/07 06:19:24;;;;;;;5.65;1.92;;;;;;;-148.88;92.83;76951.44;4943928;29;20047;-84
2022/10/07 06:21:50;;;;;;;8.55;2.33;;;;;;;-148.88;92.00;76935.19;4956319;29;20052;-84
2022/10/07 06:24:16;;;;;;;15.23;2.58;;;;;;;-148.88;92.00;76925.03;4955161;29;20035;-85
2022/10/07 06:26:41;;;;;;;5.57;2.35;;;;;;;-148.88;91.22;76931.13;4945265;29;20119;-85
2022/10/07 06:29:07;;;;;;;9.35;2.00;;;;;;;-148.88;91.69;76931.13;4942358;29;20051;-83
2022/10/07 06:31:33;;;;;;;6.80;2.20;;;;;;;-148.88;91.82;76920.97;4939533;29;20071;-85
2022/10/07 06:33:58;;;;;;;12.15;3.53;;;;;;;-148.88;91.86;76914.88;4939747;29;20028;-84
2022/10/07 06:36:24;;;;;;;9.48;2.22;;;;;;;-148.88;91.88;76914.88;4939017;29;20027;-83
2022/10/07 06:38:51;;;;;;;10.88;2.10;;;;;;;-148.88;91.59;76906.75;4939216;29;20382;-83
2022/10/07 06:41:17;;;;;;;8.18;1.98;;;;;;;-148.88;91.74;76906.75;4939393;29;20043;-84
2022/10/07 06:43:43;;;;;;;5.35;2.30;;;;;;;-148.88;91.38;76898.63;4939177;29;20032;-84
2022/10/07 06:46:16;;;;;;;12.35;3.38;;;;;;;-148.88;91.81;76894.56;4938856;29;20028;-84
2022/10/07 06:48:43;;;;;;;7.90;2.40;;;;;;;-148.88;91.58;76890.50;4938424;29;20458;-84
2022/10/07 06:51:12;;;;;;;9.15;2.88;;;;;;;-148.88;91.81;76878.28;4939732;29;20031;-84
2022/10/07 06:53:41;;;;;;;17.63;4.68;;;;;;;-148.88;91.21;76870.16;4940535;29;20036;-84
2022/10/07 06:56:09;;;;;;;12.38;4.25;;;;;;;-148.88;91.13;76862.03;4942262;29;20123;-84
2022/10/07 06:58:35;;;;;;;13.50;2.83;;;;;;;-148.88;91.08;76849.84;4942499;29;20024;-85
2022/10/07 07:01:03;;;;;;;8.80;2.38;;;;;;;-148.88;90.41;76845.78;4943467;28;20032;-85
2022/10/07 07:03:29;;;;;;;10.98;3.40;;;;;;;-148.88;90.78;76839.69;4941218;29;20073;-84
2022/10/07 07:05:55;;;;;;;13.27;3.50;;;;;;;-148.88;89.41;76827.50;4939183;29;20099;-84
2022/10/07 07:08:26;;;;;;;8.23;2.75;;;;;;;-148.88;88.98;76815.31;4939831;29;20034;-84
2022/10/07 07:10:52;;;;;;;12.73;3.08;;;;;;;-148.88;89.17;76813.28;4939999;29;20027;-84
2022/10/07 07:13:17;;;;;;;9.93;2.58;;;;;;;-148.88;88.67;76797.03;4937073;29;20027;-84
2022/10/07 07:15:56;;;;;;;8.15;2.63;;;;;;;-148.88;88.51;76792.97;4938479;29;20487;-84
2022/10/07 07:18:22;;;;;;;12.52;2.80;;;;;;;-148.88;88.94;76780.78;4939211;29;20115;-84
2022/10/07 07:20:47;;;;;;;13.13;3.50;;;;;;;-148.88;89.03;76774.69;4940482;29;20118;-83
2022/10/07 07:23:12;;;;;;;11.80;3.10;;;;;;;-148.88;88.82;76766.56;4939627;29;20118;-84
2022/10/07 07:25:39;;;;;;;11.50;2.97;;;;;;;-148.88;88.56;76758.41;4941373;29;20106;-84
2022/10/07 07:28:06;;;;;;;12.10;2.83;;;;;;;-148.88;87.62;76752.31;4939454;29;20024;-84
2022/10/07 07:30:37;;;;;;;10.10;2.63;;;;;;;-148.88;86.69;76746.22;4939675;29;20078;-84
2022/10/07 07:33:04;;;;;;;7.13;2.65;;;;;;;-148.88;87.20;76738.09;4939871;29;20023;-84
2022/10/07 07:35:31;;;;;;;8.25;2.30;;;;;;;-148.88;86.54;76713.72;4939302;29;20090;-83
2022/10/07 07:37:58;;;;;;;12.15;3.08;;;;;;;-148.88;86.28;76705.59;4940838;29;20127;-84
2022/10/07 07:40:25;;;;;;;6.95;2.30;;;;;;;-148.88;84.51;76687.31;4939816;29;20356;-82
2022/10/07 07:42:50;;;;;;;10.75;2.40;;;;;;;-148.88;85.30;76691.38;4940983;29;20028;-84
2022/10/07 07:45:17;;;;;;;10.43;2.75;;;;;;;-148.88;85.29;76677.16;4939159;29;20023;-85
2022/10/07 07:47:43;;;;;;;7.75;2.78;;;;;;;-148.88;84.40;76671.06;4936731;29;20047;-84
2022/10/07 07:50:09;;;;;;;10.07;2.50;;;;;;;-148.88;85.37;76673.09;4937523;29;20031;-84
2022/10/07 07:52:40;;;;;;;14.05;3.38;;;;;;;-148.88;85.42;76667.00;4939193;29;20024;-84
2022/10/07 07:55:06;;;;;;;8.80;2.92;;;;;;;-148.88;85.91;76656.84;4939149;29;20023;-84
2022/10/07 07:57:33;;;;;;;8.73;2.38;;;;;;;-148.88;84.93;76646.69;4938949;29;20031;-84
2022/10/07 07:59:58;;;;;;;9.57;2.72;;;;;;;-148.88;84.69;76630.44;4940320;29;20030;-83
2022/10/07 08:02:24;;;;;;;10.77;2.78;;;;;;;-148.88;85.79;76626.38;4939475;29;20031;-84
2022/10/07 08:04:52;;;;;;;14.65;3.33;;;;;;;-148.88;84.85;76601.97;4939630;29;20039;-84
2022/10/07 08:07:18;;;;;;;13.52;3.40;;;;;;;-148.88;84.46;76589.78;4938970;29;20027;-84
2022/10/07 08:09:43;;;;;;;12.05;3.17;;;;;;;-148.88;82.34;76573.53;4939153;29;20034;-84
2022/10/07 08:12:13;;;;;;;11.88;2.90;;;;;;;-148.88;83.12;76549.16;4940581;29;20470;-84
2022/10/07 08:14:42;;;;;;;11.68;2.50;;;;;;;-148.88;81.19;76532.91;4939048;29;20024;-85
2022/10/07 08:17:09;;;;;;;11.00;2.78;;;;;;;-148.88;78.63;76522.75;4939276;29;20027;-84
2022/10/07 08:19:35;;;;;;;8.93;2.30;;;;;;;-148.88;78.22;76508.53;4940025;29;20111;-84
2022/10/07 08:22:00;;;;;;;9.93;2.42;;;;;;;-148.88;79.04;76492.28;4937547;29;20466;-83
2022/10/07 08:24:26;;;;;;;8.55;2.08;;;;;;;-148.88;78.30;76484.16;4936646;29;20024;-84
2022/10/07 08:26:52;;;;;;;11.15;2.30;;;;;;;-148.88;77.41;76480.09;4937521;29;20031;-84
2022/10/07 08:29:19;;;;;;;10.88;2.40;;;;;;;-148.88;77.34;76455.72;4938579;29;20063;-84
2022/10/07 08:31:45;;;;;;;9.90;3.00;;;;;;;-148.88;77.86;76439.47;4939254;29;20052;-85
2022/10/07 08:34:10;;;;;;;11.43;2.45;;;;;;;-148.88;76.47;76439.47;4938767;29;20039;-85
2022/10/07 08:36:39;;;;;;;9.90;2.53;;;;;;;-148.88;76.20;76415.06;4940855;29;20063;-85
2022/10/07 08:39:08;;;;;;;13.02;2.55;;;;;;;-148.88;75.23;76406.94;4939005;29;20031;-84
2022/10/07 08:42:07;;;;;;;10.48;2.20;;;;;;;-148.88;73.39;76382.56;4939110;29;20027;-84
2022/10/07 08:44:40;;;;;;;9.82;2.25;;;;;;;-148.88;73.99;76366.31;4938824;29;20115;-84
2022/10/07 08:47:29;;;;;;;8.65;2.50;;;;;;;-148.88;72.85;76352.09;4938365;29;20054;-82
2022/10/07 08:50:14;;;;;;;12.18;2.65;;;;;;;-148.88;74.31;76341.94;4940064;29;20028;-85
2022/10/07 08:52:48;;;;;;;7.18;2.00;;;;;;;-148.88;73.81;76317.56;4939363;29;20023;-85
2022/10/07 08:55:21;;;;;;;11.48;2.50;;;;;;;-148.88;72.15;76309.44;4941277;29;20024;-83
2022/10/07 08:58:04;;;;;;;10.27;3.08;;;;;;;-148.88;73.04;76297.25;4938170;29;20023;-84
2022/10/07 09:01:02;;;;;;;11.77;2.58;;;;;;;-148.88;72.27;76256.63;4937698;29;20428;-86
2022/10/07 09:03:50;;;;;;;10.70;2.78;;;;;;;-148.88;70.17;76254.59;4924121;29;20047;-85
2022/10/07 09:06:28;;;;;;;10.52;3.00;;;;;;;-148.88;68.74;76230.22;4943347;29;20028;-84
2022/10/07 09:09:03;;;;;;;15.52;2.72;;;;;;;-148.88;70.11;76211.94;4944447;29;20031;-85
2022/10/07 09:11:32;;;;;;;9.27;2.83;;;;;;;-148.88;71.51;76175.38;4943432;29;20030;-85
2022/10/07 09:14:12;;;;;;;8.40;2.38;;;;;;;-148.88;70.53;76161.16;4943032;29;20042;-84
2022/10/07 09:16:43;;;;;;;9.13;2.28;;;;;;;-148.88;67.93;76146.94;4959981;29;20087;-86
2022/10/07 09:19:42;;;;;;;7.22;2.30;;;;;;;-148.88;66.99;76138.81;4959624;29;20039;-85
2022/10/07 09:22:15;;;;;;;7.15;2.30;;;;;;;-148.88;66.31;76155.06;4946180;29;20039;-85
2022/10/07 09:24:44;;;;;;;7.82;2.15;;;;;;;-148.88;67.68;76138.81;4946193;29;20054;-85
2022/10/07 09:27:14;;;;;;;9.30;2.28;;;;;;;-148.88;67.73;76124.56;4945845;29;20114;-85
2022/10/07 09:29:41;;;;;;;8.75;2.53;;;;;;;-148.88;67.44;76085.97;4944784;29;20051;-85
2022/10/07 09:32:13;;;;;;;10.32;1.90;;;;;;;-148.88;66.65;76073.78;4942338;29;20079;-84
2022/10/07 09:34:39;;;;;;;9.00;2.22;;;;;;;-148.88;65.65;76090.03;4940241;29;20485;-84
2022/10/07 09:37:07;;;;;;;12.05;2.60;;;;;;;-148.88;66.33;76079.88;4942216;29;20039;-84
2022/10/07 09:39:33;;;;;;;11.30;2.40;;;;;;;-148.88;65.83;76057.53;4943013;29;20051;-84
2022/10/07 09:41:58;;;;;;;10.32;2.30;;;;;;;-148.88;66.18;76041.28;4941719;29;20028;-84
2022/10/07 09:44:26;;;;;;;11.05;2.50;;;;;;;-148.88;65.16;76031.13;4945078;29;20422;-84
2022/10/07 09:47:19;;;;;;;9.60;2.47;;;;;;;-148.88;64.60;76041.28;4943522;29;20055;-85
2022/10/07 09:49:50;;;;;;;12.55;2.20;;;;;;;-148.88;64.56;76029.09;4943707;29;20028;-84
2022/10/07 09:52:17;;;;;;;9.60;2.00;;;;;;;-148.88;66.03;76008.78;4942484;29;20028;-84
2022/10/07 09:54:47;;;;;;;10.18;2.20;;;;;;;-148.88;64.16;75992.53;4942126;29;20028;-84
2022/10/07 09:57:34;;;;;;;9.77;1.92;;;;;;;-148.88;63.74;76004.72;4941813;29;20498;-86
2022/10/07 10:00:11;;;;;;;10.45;2.20;;;;;;;-148.88;65.09;75998.63;4942101;29;20023;-84
2022/10/07 10:02:39;;;;;;;10.23;2.10;;;;;;;-148.88;64.66;75992.53;4943021;29;20043;-84
2022/10/07 10:05:05;;;;;;;7.72;2.20;;;;;;;-148.88;65.10;75970.19;4941862;29;20398;-84
2022/10/07 10:07:35;;;;;;;8.77;2.47;;;;;;;-148.88;65.00;75943.78;4939946;29;20042;-84
2022/10/07 10:10:31;;;;;;;7.88;2.33;;;;;;;-148.88;63.58;75929.56;4938778;29;20020;-84
2022/10/07 10:12:59;;;;;;;15.05;2.55;;;;;;;-148.88;63.30;75911.28;4941206;29;20438;-84
2022/10/07 10:15:45;;;;;;;8.52;1.98;;;;;;;-148.88;60.96;75919.41;4941429;29;20056;-84
2022/10/07 10:18:27;;;;;;;10.48;2.30;;;;;;;-148.88;59.10;75911.28;4940387;29;20517;-85
2022/10/07 10:21:14;;;;;;;11.82;2.20;;;;;;;-148.88;61.09;75907.22;4941460;29;20031;-85
2022/10/07 10:23:45;;;;;;;11.63;1.95;;;;;;;-148.88;61.17;75911.28;4943553;29;20054;-84
2022/10/07 10:26:26;;;;;;;11.77;1.92;;;;;;;-148.88;61.19;75870.66;4941993;29;20024;-84
2022/10/07 10:29:00;;;;;;;9.48;2.08;;;;;;;-148.88;59.98;75858.47;4942253;29;20126;-85
2022/10/07 10:31:53;;;;;;;12.13;1.77;;;;;;;-148.88;59.90;75866.59;4941785;29;20019;-84
2022/10/07 10:34:52;;;;;;;10.18;1.92;;;;;;;-148.88;58.71;75846.28;4942971;29;20115;-84
2022/10/07 10:37:21;;;;;;;10.23;1.90;;;;;;;-148.88;59.68;75834.09;4942787;29;20035;-85
2022/10/07 10:40:21;;;;;;;12.10;2.17;;;;;;;-148.88;57.57;75813.78;4943361;29;20550;-85
2022/10/07 10:43:23;;;;;;;8.10;2.35;;;;;;;-148.88;59.22;75795.50;4941655;29;20031;-83
2022/10/07 10:45:49;;;;;;;9.55;2.08;;;;;;;-148.88;59.20;75769.09;4938298;29;20035;-83
2022/10/07 10:48:29;;;;;;;9.98;2.28;;;;;;;-148.88;58.45;75738.63;4939628;29;20035;-84
2022/10/07 10:51:41;;;;;;;6.10;1.65;;;;;;;-148.88;57.39;75744.72;4940583;29;20023;-85
2022/10/07 10:54:37;;;;;;;14.63;1.80;;;;;;;-148.88;55.97;75744.72;4943320;29;20118;-85
2022/10/07 10:57:11;;;;;;;9.82;2.05;;;;;;;-148.88;56.89;75750.81;4944903;29;20043;-85
2022/10/07 11:00:04;;;;;;;11.38;2.17;;;;;;;-148.88;55.92;75744.72;4942410;29;20035;-83
2022/10/07 11:02:42;;;;;;;9.57;1.85;;;;;;;-148.88;57.34;75726.44;4943520;29;20028;-84
2022/10/07 11:05:26;;;;;;;11.82;2.00;;;;;;;-148.88;57.05;75704.09;4942742;29;20293;-84
2022/10/07 11:07:57;;;;;;;;;;;;;;;-148.88;56.95;75700.03;4945108;29;20019;-84
2022/10/07 11:11:05;;;;;;;8.50;1.80;;;;;;;-148.88;56.10;75651.28;4943783;29;19918;-84
2022/10/07 11:13:46;;;;;;;10.90;2.20;;;;;;;-148.88;55.07;75675.66;4942165;29;20039;-85
2022/10/07 11:16:21;;;;;;;6.70;1.73;;;;;;;-148.88;54.64;75673.63;4941778;29;20027;-85
2022/10/07 11:18:59;;;;;;;11.02;2.03;;;;;;;-148.88;55.98;75657.38;4937695;29;20051;-84
2022/10/07 11:21:43;;;;;;;9.30;2.20;;;;;;;-148.88;55.47;75675.66;4938033;29;20392;-84
2022/10/07 11:24:12;;;;;;;;;;;;;;;-148.88;55.61;75641.13;4941407;29;20023;-84
2022/10/07 11:26:44;;;;;;;10.07;2.08;;;;;;;-148.88;54.91;75669.56;4940871;29;19910;-84
2022/10/07 11:29:25;;;;;;;11.15;2.22;;;;;;;-148.88;54.85;75675.66;4940099;29;20118;-85
2022/10/07 11:32:38;;;;;;;7.78;1.85;;;;;;;-148.88;55.90;75630.97;4941296;29;20024;-86
2022/10/07 11:35:28;;;;;;;11.02;2.17;;;;;;;-148.88;55.60;75671.59;4952564;29;20040;-84
2022/10/07 11:38:01;;;;;;;11.65;1.90;;;;;;;-148.88;55.03;75663.47;4957109;28;20024;-86
2022/10/07 11:40:30;;;;;;;;;;;;;;;-148.88;55.15;75671.59;4941905;29;20042;-85
2022/10/07 11:43:05;;;;;;;11.13;2.45;;;;;;;-148.88;55.19;75683.78;4941606;29;19922;-85
2022/10/07 11:45:48;;;;;;;9.88;2.40;;;;;;;-148.88;55.16;75671.59;4941717;29;20549;-85